Time;durP1;ratioP1;P1;durP2;ratioP2;P2;SDS_P1;SDS_P2;PMS_P1;PMS_P2;Temp;Humidity;BMP_temperature;BMP_pressure;BME280_temperature;BME280_humidity;BME280_pressure;Samples;Min_cycle;Max_cycle;Signal;HPM_P1;HPM_P2
2023/04/13 00:00:44;;;;;;;6.47;1.13;;;;;;;7.84;100.00;99306.47;5047451;28;20029;-61
2023/04/13 00:03:11;;;;;;;2.17;1.08;;;;;;;7.84;100.00;99303.00;5047083;28;20025;-62
2023/04/13 00:05:40;;;;;;;7.10;1.35;;;;;;;7.78;100.00;99305.91;5047124;28;20052;-61
2023/04/13 00:08:05;;;;;;;0.88;0.88;;;;;;;7.75;100.00;99301.66;5046109;28;20041;-63
2023/04/13 00:10:35;;;;;;;0.77;0.70;;;;;;;7.75;100.00;99296.41;5046989;28;20056;-63
2023/04/13 00:13:01;;;;;;;1.55;1.02;;;;;;;7.70;100.00;99295.75;5047055;28;20067;-64
2023/04/13 00:15:27;;;;;;;1.40;0.70;;;;;;;7.67;100.00;99295.91;5012791;28;20021;-61
2023/04/13 00:17:52;;;;;;;1.70;0.88;;;;;;;7.57;100.00;99306.84;5046778;28;20027;-62
2023/04/13 00:20:18;;;;;;;0.88;0.70;;;;;;;7.61;100.00;99294.44;5046796;28;20021;-62
2023/04/13 00:22:45;;;;;;;2.03;0.75;;;;;;;7.62;100.00;99279.56;5045448;28;20029;-61
2023/04/13 00:25:13;;;;;;;1.58;0.77;;;;;;;7.55;100.00;99285.09;5046076;28;20033;-62
2023/04/13 00:27:38;;;;;;;1.02;0.60;;;;;;;7.54;100.00;99295.63;5046476;28;20049;-60
2023/04/13 00:30:08;;;;;;;0.73;0.70;;;;;;;7.53;100.00;99294.78;5046446;28;20072;-60
2023/04/13 00:32:35;;;;;;;2.67;1.05;;;;;;;7.57;100.00;99291.13;5046108;28;20068;-62
2023/04/13 00:35:00;;;;;;;3.25;0.85;;;;;;;7.54;100.00;99299.13;5026536;28;20040;-64
2023/04/13 00:37:29;;;;;;;2.08;0.70;;;;;;;7.43;100.00;99304.84;5026580;28;20022;-61
2023/04/13 00:39:54;;;;;;;1.83;1.10;;;;;;;7.44;100.00;99298.66;5043734;28;20023;-60
2023/04/13 00:42:20;;;;;;;2.20;0.73;;;;;;;7.50;100.00;99296.72;5046344;28;20831;-60
2023/04/13 00:44:45;;;;;;;0.63;0.63;;;;;;;7.49;100.00;99303.72;5046427;28;20032;-65
2023/04/13 00:47:11;;;;;;;2.65;0.75;;;;;;;7.51;100.00;99309.75;5046270;28;20041;-64
2023/04/13 00:49:36;;;;;;;2.65;0.73;;;;;;;7.45;100.00;99315.25;5046730;28;20067;-61
2023/04/13 00:52:02;;;;;;;1.35;0.68;;;;;;;7.57;100.00;99309.47;5045627;28;20087;-61
2023/04/13 00:54:28;;;;;;;3.28;0.90;;;;;;;7.56;100.00;99315.59;5046294;28;20112;-61
2023/04/13 00:56:54;;;;;;;0.98;0.65;;;;;;;7.57;100.00;99314.72;5045489;28;20025;-61
2023/04/13 00:59:19;;;;;;;1.35;0.70;;;;;;;7.69;100.00;99318.53;5046753;28;20025;-62
2023/04/13 01:01:49;;;;;;;1.10;0.80;;;;;;;7.69;100.00;99334.25;5045088;28;20036;-61
2023/04/13 01:04:17;;;;;;;1.27;0.82;;;;;;;7.64;100.00;99338.00;5045739;28;20029;-60
2023/04/13 01:06:53;;;;;;;4.28;1.20;;;;;;;7.66;100.00;99337.03;5045964;28;20029;-63
2023/04/13 01:09:39;;;;;;;2.83;0.90;;;;;;;7.72;100.00;99338.50;5027487;28;20083;-60
2023/04/13 01:12:11;;;;;;;2.47;1.10;;;;;;;7.73;100.00;99348.06;5028824;28;20029;-59
2023/04/13 01:14:41;;;;;;;2.13;1.25;;;;;;;7.70;100.00;99350.81;5027814;28;20037;-62
2023/04/13 01:17:14;;;;;;;3.35;1.10;;;;;;;7.74;100.00;99352.41;5028341;28;20025;-61
2023/04/13 01:19:58;;;;;;;5.68;1.63;;;;;;;7.75;100.00;99348.84;5028281;28;20100;-61
2023/04/13 01:22:27;;;;;;;4.57;1.30;;;;;;;7.74;100.00;99356.78;5027021;28;20036;-61
2023/04/13 01:25:16;;;;;;;5.70;1.38;;;;;;;7.76;100.00;99358.41;5045753;28;20032;-61
2023/04/13 01:27:46;;;;;;;;;;;;;;;7.77;100.00;99370.59;5046622;28;20044;-60
2023/04/13 01:30:13;;;;;;;1.88;0.88;;;;;;;7.71;100.00;99378.78;5028502;28;19980;-60
2023/04/13 01:32:40;;;;;;;7.68;1.30;;;;;;;7.75;100.00;99375.06;5045716;28;20104;-60
2023/04/13 01:35:09;;;;;;;4.53;1.17;;;;;;;7.75;100.00;99380.31;5028710;28;20493;-61
2023/04/13 01:37:37;;;;;;;5.25;1.13;;;;;;;7.67;100.00;99378.03;5045508;28;20040;-60
2023/04/13 01:40:10;;;;;;;4.20;1.50;;;;;;;7.71;100.00;99386.63;5046034;28;20558;-60
2023/04/13 01:42:35;;;;;;;5.82;1.60;;;;;;;7.80;100.00;99394.06;5045858;28;20025;-61
2023/04/13 01:45:02;;;;;;;9.13;1.63;;;;;;;7.73;100.00;99394.44;5045643;28;20056;-63
2023/04/13 01:47:27;;;;;;;6.55;1.30;;;;;;;7.75;100.00;99400.44;5049113;28;20064;-62
2023/04/13 01:50:21;;;;;;;5.45;1.60;;;;;;;7.71;100.00;99416.31;5049391;28;20136;-63
2023/04/13 01:52:47;;;;;;;2.70;1.13;;;;;;;7.62;100.00;99416.75;5031957;28;20744;-61
2023/04/13 01:55:12;;;;;;;2.75;1.23;;;;;;;7.46;100.00;99427.03;5014217;28;20112;-62
2023/04/13 01:57:39;;;;;;;11.82;1.38;;;;;;;7.36;100.00;99430.97;5049598;28;20083;-61
2023/04/13 02:00:09;;;;;;;5.68;1.20;;;;;;;7.33;100.00;99432.81;5048694;28;20033;-62
2023/04/13 02:02:35;;;;;;;7.95;1.13;;;;;;;7.34;100.00;99433.66;5049563;28;20031;-60
2023/04/13 02:05:00;;;;;;;2.85;0.95;;;;;;;7.30;100.00;99434.72;5048188;28;20025;-63
2023/04/13 02:07:25;;;;;;;6.03;1.42;;;;;;;7.19;100.00;99440.41;5047280;28;20039;-60
2023/04/13 02:09:51;;;;;;;6.57;1.10;;;;;;;7.17;100.00;99448.31;5048863;28;20135;-61
2023/04/13 02:12:16;;;;;;;12.23;1.50;;;;;;;7.05;100.00;99449.69;5030154;28;20050;-62
2023/04/13 02:14:41;;;;;;;4.00;1.52;;;;;;;6.97;100.00;99451.78;5049360;28;20394;-61
2023/04/13 02:17:07;;;;;;;7.38;1.20;;;;;;;6.90;100.00;99450.34;5048598;28;20128;-59
2023/04/13 02:19:33;;;;;;;7.03;1.48;;;;;;;6.88;100.00;99458.25;5031858;28;20390;-61
2023/04/13 02:21:59;;;;;;;6.43;1.85;;;;;;;6.89;100.00;99461.75;5049321;28;20029;-60
2023/04/13 02:24:24;;;;;;;10.70;1.77;;;;;;;6.88;100.00;99462.63;5047605;28;20115;-62
2023/04/13 02:26:49;;;;;;;16.20;1.30;;;;;;;6.97;100.00;99459.63;5049505;28;20120;-60
2023/04/13 02:29:16;;;;;;;6.75;1.50;;;;;;;6.97;100.00;99457.03;5047190;28;20086;-61
2023/04/13 02:31:42;;;;;;;8.63;1.40;;;;;;;7.07;100.00;99463.59;5049523;28;20063;-63
2023/04/13 02:34:09;;;;;;;5.70;1.52;;;;;;;7.11;100.00;99464.31;5048159;28;20108;-61
2023/04/13 02:36:35;;;;;;;11.57;1.70;;;;;;;7.06;100.00;99485.47;5048255;28;20735;-59
2023/04/13 02:39:00;;;;;;;7.28;1.55;;;;;;;7.12;100.00;99470.38;5047998;28;20017;-64
2023/04/13 02:41:25;;;;;;;4.47;1.10;;;;;;;7.08;100.00;99478.38;5048649;28;20572;-60
2023/04/13 02:43:51;;;;;;;10.10;1.70;;;;;;;7.06;100.00;99485.47;5048446;28;20032;-62
2023/04/13 02:46:17;;;;;;;12.05;1.60;;;;;;;7.00;100.00;99482.22;5047355;28;20020;-61
2023/04/13 02:48:42;;;;;;;4.80;1.42;;;;;;;6.99;100.00;99488.38;5047621;28;20029;-60
2023/04/13 02:51:07;;;;;;;5.30;1.20;;;;;;;6.97;100.00;99488.44;5048741;28;20032;-60
2023/04/13 02:53:33;;;;;;;5.28;1.48;;;;;;;6.99;100.00;99484.00;5047386;28;20029;-60
2023/04/13 02:55:58;;;;;;;5.70;1.38;;;;;;;7.10;100.00;99487.97;5049351;28;20387;-61
2023/04/13 02:58:24;;;;;;;8.15;1.17;;;;;;;7.19;100.00;99492.78;5048517;28;20059;-62
2023/04/13 03:00:49;;;;;;;10.75;2.05;;;;;;;7.25;100.00;99497.78;5047874;28;20036;-61
2023/04/13 03:03:15;;;;;;;7.00;1.35;;;;;;;7.38;100.00;99502.53;5048439;28;20024;-60
2023/04/13 03:05:41;;;;;;;5.25;1.48;;;;;;;7.49;100.00;99508.16;5048564;28;20032;-62
2023/04/13 03:08:09;;;;;;;6.50;1.27;;;;;;;7.57;100.00;99507.81;5047022;28;20045;-60
2023/04/13 03:10:36;;;;;;;7.78;1.75;;;;;;;7.57;100.00;99508.69;5021420;28;20084;-60
2023/04/13 03:13:02;;;;;;;6.65;1.25;;;;;;;7.61;100.00;99517.25;5028578;28;20132;-60
2023/04/13 03:15:28;;;;;;;7.82;1.48;;;;;;;7.68;100.00;99520.47;5027885;28;20113;-59
2023/04/13 03:17:53;;;;;;;12.55;1.75;;;;;;;7.69;100.00;99533.53;5028196;28;20017;-60
2023/04/13 03:20:21;;;;;;;20.90;1.98;;;;;;;7.74;100.00;99530.72;5027527;28;20021;-60
2023/04/13 03:22:46;;;;;;;6.57;1.30;;;;;;;7.83;100.00;99525.03;5045608;28;20051;-60
2023/04/13 03:25:12;;;;;;;11.45;1.83;;;;;;;7.92;100.00;99543.94;5048001;28;20460;-59
2023/04/13 03:27:37;;;;;;;9.82;1.60;;;;;;;7.92;100.00;99539.53;5047783;28;20033;-60
2023/04/13 03:30:03;;;;;;;13.70;1.92;;;;;;;7.95;100.00;99549.06;5048028;28;20032;-60
2023/04/13 03:32:28;;;;;;;6.32;1.83;;;;;;;7.90;100.00;99557.13;5046757;28;20029;-60
2023/04/13 03:34:54;;;;;;;12.55;1.85;;;;;;;7.91;100.00;99552.69;5047857;28;20025;-62
2023/04/13 03:37:19;;;;;;;7.22;1.63;;;;;;;7.97;100.00;99560.31;5046649;28;20568;-60
2023/04/13 03:39:45;;;;;;;6.20;1.70;;;;;;;8.03;100.00;99562.66;5048512;28;20021;-60
2023/04/13 03:42:10;;;;;;;6.30;1.98;;;;;;;8.09;100.00;99566.78;5048669;28;20474;-60
2023/04/13 03:44:36;;;;;;;7.03;2.10;;;;;;;8.10;100.00;99573.75;5048080;28;20029;-60
2023/04/13 03:47:01;;;;;;;6.70;1.67;;;;;;;8.16;100.00;99562.97;5040313;28;20029;-62
2023/04/13 03:49:27;;;;;;;9.55;2.03;;;;;;;8.12;100.00;99578.94;5028057;28;20026;-60
2023/04/13 03:51:52;;;;;;;11.15;1.70;;;;;;;8.15;100.00;99577.03;5032864;28;20039;-60
2023/04/13 03:54:17;;;;;;;10.32;2.38;;;;;;;8.09;100.00;99593.88;5046637;28;20463;-58
2023/04/13 03:56:43;;;;;;;7.18;1.73;;;;;;;8.08;100.00;99586.09;5044951;28;20056;-61
2023/04/13 03:59:08;;;;;;;13.35;2.00;;;;;;;8.09;100.00;99603.53;5047061;28;20085;-63
2023/04/13 04:01:33;;;;;;;8.70;1.75;;;;;;;8.03;100.00;99588.91;5029657;28;20047;-62
2023/04/13 04:03:59;;;;;;;10.63;1.70;;;;;;;8.12;100.00;99602.56;5046849;28;20795;-61
2023/04/13 04:06:26;;;;;;;10.18;1.80;;;;;;;8.08;100.00;99600.06;5046075;28;20455;-61
2023/04/13 04:08:51;;;;;;;10.07;1.73;;;;;;;8.13;100.00;99604.25;5046117;28;20112;-59
2023/04/13 04:11:17;;;;;;;11.60;1.92;;;;;;;8.17;100.00;99603.19;5046541;28;20132;-61
2023/04/13 04:13:42;;;;;;;9.57;1.85;;;;;;;8.24;100.00;99601.16;5046286;28;20083;-58
2023/04/13 04:16:10;;;;;;;8.10;1.45;;;;;;;8.01;100.00;99616.13;5045628;28;20029;-58
2023/04/13 04:18:35;;;;;;;9.57;1.63;;;;;;;8.11;100.00;99606.06;5045071;28;20064;-60
2023/04/13 04:21:03;;;;;;;7.10;1.35;;;;;;;8.04;100.00;99602.88;5045527;28;20056;-61
2023/04/13 04:23:29;;;;;;;8.57;1.30;;;;;;;8.00;100.00;99607.41;5044380;28;20333;-60
2023/04/13 04:25:58;;;;;;;6.43;1.30;;;;;;;8.01;100.00;99610.88;5025772;28;20511;-62
2023/04/13 04:28:24;;;;;;;3.60;1.50;;;;;;;7.99;100.00;99602.22;5040850;28;20479;-58
2023/04/13 04:30:55;;;;;;;12.73;1.63;;;;;;;7.96;100.00;99608.44;5045073;28;20032;-59
2023/04/13 04:33:23;;;;;;;9.27;1.33;;;;;;;7.84;100.00;99610.69;5043924;28;20085;-60
2023/04/13 04:35:50;;;;;;;9.18;1.55;;;;;;;7.89;100.00;99618.34;5045573;28;20013;-59
2023/04/13 04:38:16;;;;;;;6.10;1.33;;;;;;;8.02;100.00;99629.19;5036105;28;20022;-59
2023/04/13 04:40:45;;;;;;;6.28;1.45;;;;;;;8.07;100.00;99640.31;5043362;28;20676;-60
2023/04/13 04:43:13;;;;;;;3.95;1.25;;;;;;;7.92;100.00;99636.56;5045200;28;20078;-61
2023/04/13 04:45:42;;;;;;;2.78;1.30;;;;;;;7.85;100.00;99640.38;5045081;28;20047;-59
2023/04/13 04:48:09;;;;;;;4.38;1.42;;;;;;;7.79;100.00;99632.75;5044813;28;20017;-60
2023/04/13 04:50:36;;;;;;;5.90;1.52;;;;;;;7.65;100.00;99626.31;5045196;28;20085;-59
2023/04/13 04:53:02;;;;;;;3.53;1.45;;;;;;;7.61;100.00;99629.16;5030564;28;20025;-61
2023/04/13 04:55:27;;;;;;;5.75;1.30;;;;;;;7.61;100.00;99642.25;5044830;28;20391;-60
2023/04/13 04:57:53;;;;;;;8.90;1.70;;;;;;;7.57;100.00;99639.75;5043977;28;20423;-59
2023/04/13 05:00:18;;;;;;;12.38;2.25;;;;;;;7.63;100.00;99653.53;5044179;28;20104;-60
2023/04/13 05:02:45;;;;;;;13.75;2.30;;;;;;;7.55;100.00;99661.69;5045518;28;20036;-61
2023/04/13 05:05:10;;;;;;;7.28;1.50;;;;;;;7.51;100.00;99660.97;5043262;28;20029;-61
2023/04/13 05:07:37;;;;;;;4.00;1.17;;;;;;;7.44;100.00;99662.16;5027034;28;20363;-62
2023/04/13 05:10:03;;;;;;;4.45;1.35;;;;;;;7.52;100.00;99660.06;5046368;28;20045;-60
2023/04/13 05:12:28;;;;;;;8.20;1.02;;;;;;;7.53;100.00;99671.41;5045760;28;20108;-61
2023/04/13 05:14:53;;;;;;;2.30;1.00;;;;;;;7.62;100.00;99678.03;5046305;28;20115;-62
2023/04/13 05:17:19;;;;;;;6.70;1.15;;;;;;;7.57;100.00;99672.97;5045052;28;20112;-62
2023/04/13 05:19:45;;;;;;;5.85;1.30;;;;;;;7.68;100.00;99677.81;5046641;28;20107;-60
2023/04/13 05:22:11;;;;;;;7.25;1.40;;;;;;;7.71;100.00;99675.06;5048524;28;20495;-62
2023/04/13 05:24:37;;;;;;;8.93;1.40;;;;;;;7.84;100.00;99693.75;5050413;28;20033;-61
2023/04/13 05:27:03;;;;;;;7.70;1.42;;;;;;;7.86;100.00;99680.56;5050237;28;20349;-60
2023/04/13 05:29:29;;;;;;;6.72;1.30;;;;;;;7.83;100.00;99692.88;5050491;28;20125;-61
2023/04/13 05:31:57;;;;;;;9.05;1.98;;;;;;;7.80;100.00;99682.53;5049639;28;20034;-60
2023/04/13 05:34:23;;;;;;;9.13;1.40;;;;;;;7.86;100.00;99691.94;5050190;28;20031;-62
2023/04/13 05:36:49;;;;;;;3.28;1.10;;;;;;;7.94;100.00;99691.59;5049350;28;20116;-61
2023/04/13 05:39:14;;;;;;;7.60;1.27;;;;;;;7.90;100.00;99692.66;5050228;28;20040;-60
2023/04/13 05:41:40;;;;;;;7.30;1.98;;;;;;;7.93;100.00;99698.63;5050049;28;20033;-61
2023/04/13 05:44:05;;;;;;;3.45;1.08;;;;;;;7.88;100.00;99703.19;5045596;28;20087;-60
2023/04/13 05:46:31;;;;;;;9.82;1.40;;;;;;;7.85;100.00;99703.31;5038629;28;20392;-60
2023/04/13 05:48:58;;;;;;;10.38;1.42;;;;;;;7.86;100.00;99701.56;5038240;28;20353;-62
2023/04/13 05:51:24;;;;;;;8.27;1.88;;;;;;;7.94;100.00;99710.81;5038448;28;20108;-60
2023/04/13 05:53:49;;;;;;;12.75;1.73;;;;;;;8.06;100.00;99719.09;5045580;28;20110;-63
2023/04/13 05:56:15;;;;;;;5.72;1.95;;;;;;;8.18;100.00;99722.97;5045935;28;20022;-60
2023/04/13 05:58:40;;;;;;;14.98;1.60;;;;;;;8.23;100.00;99734.16;5037222;28;20104;-62
2023/04/13 06:01:07;;;;;;;6.03;1.67;;;;;;;8.30;100.00;99730.34;5044115;28;20059;-59
2023/04/13 06:03:33;;;;;;;7.88;2.22;;;;;;;8.44;100.00;99729.75;5049744;28;20032;-60
2023/04/13 06:05:59;;;;;;;13.32;1.85;;;;;;;8.42;100.00;99736.84;5047723;28;20021;-58
2023/04/13 06:08:26;;;;;;;5.60;1.63;;;;;;;8.43;100.00;99758.69;5039603;28;20059;-61
2023/04/13 06:10:51;;;;;;;6.97;1.40;;;;;;;8.34;100.00;99758.16;5027958;28;20037;-61
2023/04/13 06:13:17;;;;;;;6.75;1.70;;;;;;;8.34;100.00;99750.28;5025963;28;20028;-60
2023/04/13 06:15:42;;;;;;;12.82;2.55;;;;;;;8.33;100.00;99759.09;5031002;28;20043;-60
2023/04/13 06:18:08;;;;;;;8.65;1.60;;;;;;;8.44;100.00;99753.38;5038506;28;20025;-59
2023/04/13 06:20:33;;;;;;;17.25;2.20;;;;;;;8.51;100.00;99746.09;5037406;28;20514;-64
2023/04/13 06:22:58;;;;;;;13.10;2.17;;;;;;;8.62;100.00;99760.56;5037686;28;20025;-60
2023/04/13 06:25:24;;;;;;;18.02;2.15;;;;;;;8.84;100.00;99774.47;5036763;28;20084;-61
2023/04/13 06:27:50;;;;;;;16.98;2.88;;;;;;;8.79;100.00;99783.47;5037731;28;20099;-61
2023/04/13 06:30:15;;;;;;;7.38;1.65;;;;;;;8.57;100.00;99773.88;5041298;28;20471;-60
2023/04/13 06:32:40;;;;;;;13.98;2.17;;;;;;;8.39;100.00;99797.34;5042321;28;20021;-62
2023/04/13 06:35:06;;;;;;;11.13;2.55;;;;;;;8.26;100.00;99788.25;5036500;28;20029;-62
2023/04/13 06:37:33;;;;;;;8.65;2.00;;;;;;;8.36;100.00;99789.59;5046149;28;20029;-60
2023/04/13 06:40:04;;;;;;;10.35;1.92;;;;;;;8.47;100.00;99789.16;5046845;28;20044;-60
2023/04/13 06:42:29;;;;;;;14.40;2.38;;;;;;;8.90;100.00;99785.63;5048260;28;20395;-61
2023/04/13 06:44:55;;;;;;;10.52;2.17;;;;;;;9.21;100.00;99793.00;5042798;28;20021;-60
2023/04/13 06:47:20;;;;;;;18.88;3.55;;;;;;;9.24;100.00;99797.25;5027859;28;20115;-61
2023/04/13 06:49:46;;;;;;;11.18;2.03;;;;;;;9.17;100.00;99830.84;5035920;28;20467;-62
2023/04/13 06:52:11;;;;;;;15.05;2.45;;;;;;;8.98;100.00;99831.66;5046610;28;20032;-62
2023/04/13 06:54:36;;;;;;;18.85;2.85;;;;;;;8.66;100.00;99856.66;5046791;28;20511;-60
2023/04/13 06:57:02;;;;;;;12.07;2.05;;;;;;;8.22;100.00;99845.28;5046590;28;20353;-62
2023/04/13 06:59:28;;;;;;;15.77;2.38;;;;;;;8.01;100.00;99837.34;5048645;28;20021;-62
2023/04/13 07:01:53;;;;;;;15.60;2.95;;;;;;;8.07;100.00;99837.09;5048263;28;20399;-61
2023/04/13 07:04:18;;;;;;;22.30;3.25;;;;;;;8.06;100.00;99830.16;5048705;28;20162;-57
2023/04/13 07:06:44;;;;;;;11.52;2.17;;;;;;;8.20;100.00;99832.22;5029657;28;20529;-62
2023/04/13 07:09:10;;;;;;;15.85;3.30;;;;;;;8.34;100.00;99839.53;5048407;28;20155;-62
2023/04/13 07:11:35;;;;;;;12.27;2.25;;;;;;;8.73;100.00;99837.09;5048731;28;20029;-62
2023/04/13 07:14:01;;;;;;;21.67;3.85;;;;;;;9.04;100.00;99841.06;5043192;28;20108;-62
2023/04/13 07:16:26;;;;;;;19.90;2.55;;;;;;;9.16;100.00;99872.97;5041899;28;20111;-62
2023/04/13 07:18:52;;;;;;;10.45;2.55;;;;;;;9.09;100.00;99857.47;5046613;28;20013;-61
2023/04/13 07:21:17;;;;;;;13.93;2.97;;;;;;;9.31;100.00;99855.69;5046647;28;20132;-61
2023/04/13 07:23:43;;;;;;;12.80;2.63;;;;;;;9.47;100.00;99866.34;5046931;28;20025;-62
2023/04/13 07:26:17;;;;;;;17.33;3.17;;;;;;;9.75;100.00;99857.19;5046803;28;20491;-61
2023/04/13 07:28:42;;;;;;;19.92;2.60;;;;;;;9.77;100.00;99880.81;5047477;28;20451;-60
2023/04/13 07:31:07;;;;;;;23.90;3.95;;;;;;;9.60;100.00;99885.91;5047143;28;20040;-61
2023/04/13 07:33:33;;;;;;;17.65;2.78;;;;;;;9.57;100.00;99879.97;5048335;28;20029;-61
2023/04/13 07:35:58;;;;;;;14.48;2.38;;;;;;;9.55;100.00;99890.56;5046906;28;20025;-61
2023/04/13 07:38:23;;;;;;;13.52;3.13;;;;;;;9.64;100.00;99897.16;5028500;28;20044;-62
2023/04/13 07:40:49;;;;;;;20.58;2.85;;;;;;;9.66;100.00;99902.38;5047663;28;20061;-61
2023/04/13 07:43:14;;;;;;;13.77;3.00;;;;;;;9.80;100.00;99918.38;5045772;28;20051;-60
2023/04/13 07:45:39;;;;;;;19.15;2.47;;;;;;;9.87;100.00;99926.81;5046619;28;20060;-60
2023/04/13 07:48:05;;;;;;;19.98;2.97;;;;;;;9.74;100.00;99937.06;5046487;28;20029;-62
2023/04/13 07:50:30;;;;;;;13.95;2.35;;;;;;;9.61;100.00;99921.81;5047075;28;20040;-63
2023/04/13 07:52:56;;;;;;;13.50;2.22;;;;;;;9.67;100.00;99930.38;5047236;28;20025;-60
2023/04/13 07:55:21;;;;;;;15.30;2.17;;;;;;;9.67;100.00;99931.22;5045702;28;20036;-60
2023/04/13 07:57:46;;;;;;;9.55;2.17;;;;;;;9.84;100.00;99964.66;5046497;28;20079;-60
2023/04/13 08:00:13;;;;;;;13.85;2.35;;;;;;;9.85;100.00;99950.56;5046257;28;20029;-61
2023/04/13 08:02:38;;;;;;;17.45;2.08;;;;;;;9.92;100.00;99963.44;5047059;28;20028;-63
2023/04/13 08:05:04;;;;;;;17.17;2.60;;;;;;;9.78;100.00;99949.13;5045172;28;20017;-60
2023/04/13 08:07:29;;;;;;;22.48;3.17;;;;;;;9.70;100.00;99964.44;5046222;28;20029;-62
2023/04/13 08:09:55;;;;;;;15.85;2.28;;;;;;;9.78;100.00;99948.31;5047113;28;20065;-62
2023/04/13 08:12:21;;;;;;;20.02;2.30;;;;;;;9.89;100.00;99976.75;5046580;28;20114;-59
2023/04/13 08:14:47;;;;;;;17.50;2.58;;;;;;;9.92;100.00;99973.97;5046823;28;20063;-58
2023/04/13 08:17:12;;;;;;;15.63;2.67;;;;;;;9.99;100.00;99989.44;5046081;28;20072;-60
2023/04/13 08:19:38;;;;;;;12.60;2.55;;;;;;;9.94;100.00;99998.47;5047717;28;20182;-60
2023/04/13 08:22:03;;;;;;;9.15;2.20;;;;;;;9.90;100.00;99989.84;5045310;28;20029;-60
2023/04/13 08:24:29;;;;;;;16.17;2.30;;;;;;;9.94;100.00;100003.72;5046605;28;20083;-62
2023/04/13 08:26:57;;;;;;;13.93;2.47;;;;;;;10.17;100.00;99994.78;5045674;28;20040;-62
2023/04/13 08:29:23;;;;;;;15.77;2.63;;;;;;;10.22;100.00;100010.38;5047490;28;20031;-61
2023/04/13 08:31:49;;;;;;;12.40;2.90;;;;;;;10.29;100.00;100016.22;5047717;28;20021;-61
2023/04/13 08:34:15;;;;;;;15.27;2.47;;;;;;;10.11;100.00;100008.22;5047144;28;20029;-61
2023/04/13 08:36:41;;;;;;;10.38;2.35;;;;;;;10.26;100.00;100013.72;5027983;28;20028;-62
2023/04/13 08:39:09;;;;;;;11.52;1.73;;;;;;;10.33;100.00;100026.50;5048537;28;20082;-61
2023/04/13 08:41:36;;;;;;;13.10;2.17;;;;;;;10.51;100.00;100015.25;5048040;28;20020;-62
2023/04/13 08:44:05;;;;;;;17.42;2.53;;;;;;;10.55;100.00;100019.44;5046727;28;20728;-61
2023/04/13 08:46:31;;;;;;;11.48;1.88;;;;;;;10.59;100.00;100019.22;5046101;28;20033;-64
2023/04/13 08:48:57;;;;;;;17.35;2.63;;;;;;;10.60;100.00;100049.06;5046951;28;20039;-60
2023/04/13 08:51:25;;;;;;;15.20;2.50;;;;;;;10.57;100.00;100039.50;5026858;28;20031;-61
2023/04/13 08:53:57;;;;;;;13.50;2.42;;;;;;;10.75;100.00;100029.03;5046779;28;20060;-60
2023/04/13 08:56:23;;;;;;;17.27;4.07;;;;;;;10.82;99.76;100062.06;5045973;28;20032;-62
2023/04/13 08:58:51;;;;;;;10.68;2.38;;;;;;;10.78;99.52;100107.09;5045827;28;20376;-60
2023/04/13 09:01:17;;;;;;;16.80;2.77;;;;;;;10.73;99.28;100058.09;5029058;28;20037;-61
2023/04/13 09:03:52;;;;;;;13.70;2.50;;;;;;;10.86;98.55;100074.16;5046770;28;20024;-61
2023/04/13 09:06:24;;;;;;;8.70;2.47;;;;;;;10.99;98.98;100076.22;5045057;28;20067;-59
2023/04/13 09:08:54;;;;;;;9.75;2.53;;;;;;;11.09;98.71;100080.13;5023688;28;20048;-61
2023/04/13 09:11:20;;;;;;;16.00;2.22;;;;;;;11.22;97.97;100071.59;5022026;28;20018;-59
2023/04/13 09:13:50;;;;;;;10.02;2.40;;;;;;;11.37;96.91;100076.13;5017509;28;20483;-61
2023/04/13 09:16:17;;;;;;;9.85;2.50;;;;;;;11.24;96.53;100073.25;5025660;28;20037;-61
2023/04/13 09:18:54;;;;;;;14.65;2.47;;;;;;;10.97;98.43;100075.44;5024516;28;20022;-62
2023/04/13 09:21:20;;;;;;;15.93;2.50;;;;;;;11.16;99.05;100085.94;5024635;28;20026;-63
2023/04/13 09:23:57;;;;;;;17.40;3.08;;;;;;;11.30;98.81;100090.56;5007006;28;20026;-61
2023/04/13 09:26:22;;;;;;;14.05;2.80;;;;;;;11.17;99.48;100105.28;5022789;28;20099;-62
2023/04/13 09:28:50;;;;;;;11.05;1.92;;;;;;;11.04;95.57;100095.31;5024919;28;20654;-63
2023/04/13 09:31:15;;;;;;;10.27;2.10;;;;;;;10.90;96.96;100113.56;5025669;28;20384;-61
2023/04/13 09:33:45;;;;;;;15.02;3.00;;;;;;;10.69;98.31;100108.38;5023771;28;20041;-63
2023/04/13 09:36:12;;;;;;;12.98;2.25;;;;;;;10.79;98.50;100120.19;5023514;28;20135;-61
2023/04/13 09:38:37;;;;;;;15.50;2.40;;;;;;;10.61;100.00;100111.34;5023987;28;20303;-60
2023/04/13 09:41:03;;;;;;;14.18;2.30;;;;;;;10.60;99.97;100134.19;5023273;28;20100;-61
2023/04/13 09:43:38;;;;;;;16.45;2.17;;;;;;;10.74;98.89;100132.72;5024019;28;20099;-59
2023/04/13 09:46:04;;;;;;;16.88;2.47;;;;;;;10.65;97.90;100139.25;5022417;28;20034;-60
2023/04/13 09:48:29;;;;;;;14.18;2.47;;;;;;;10.84;98.50;100144.53;5022269;28;20030;-59
2023/04/13 09:51:04;;;;;;;13.93;2.45;;;;;;;10.93;97.95;100153.78;5024306;28;20051;-61
2023/04/13 09:53:41;;;;;;;11.23;2.00;;;;;;;10.83;98.89;100157.78;5012036;28;20511;-61
2023/04/13 09:56:07;;;;;;;16.48;2.50;;;;;;;11.07;98.29;100147.03;5005913;28;20030;-60
2023/04/13 09:58:43;;;;;;;15.10;2.65;;;;;;;11.28;97.65;100152.19;5006440;28;20076;-62
2023/04/13 10:01:09;;;;;;;9.25;2.08;;;;;;;11.46;98.16;100161.00;5018083;28;20092;-61
2023/04/13 10:03:35;;;;;;;13.85;2.65;;;;;;;11.73;97.03;100160.59;5026151;28;20021;-61
2023/04/13 10:06:05;;;;;;;15.52;3.00;;;;;;;11.63;95.39;100168.94;5022688;28;20132;-63
2023/04/13 10:08:30;;;;;;;10.23;2.42;;;;;;;11.74;95.55;100175.50;5033060;28;20095;-63
2023/04/13 10:10:57;;;;;;;11.82;2.30;;;;;;;11.85;95.42;100174.97;5040679;28;20504;-61
2023/04/13 10:13:25;;;;;;;13.50;2.22;;;;;;;11.80;92.85;100190.19;5020905;28;20036;-59
2023/04/13 10:16:18;;;;;;;9.85;2.00;;;;;;;11.83;92.35;100190.88;5022338;28;20083;-62
2023/04/13 10:19:06;;;;;;;11.13;2.35;;;;;;;11.67;92.33;100197.84;5044767;28;20033;-62
2023/04/13 10:21:34;;;;;;;16.60;2.58;;;;;;;11.67;92.54;100205.75;5036874;28;20021;-61
2023/04/13 10:24:04;;;;;;;9.65;1.98;;;;;;;11.66;92.28;100201.41;5036485;28;20468;-60
2023/04/13 10:26:30;;;;;;;17.15;2.20;;;;;;;11.53;92.85;100220.47;5021976;28;20033;-62
2023/04/13 10:28:55;;;;;;;9.02;2.33;;;;;;;11.61;91.88;100239.44;5037410;28;20017;-62
2023/04/13 10:31:21;;;;;;;14.57;2.58;;;;;;;11.50;90.97;100225.91;5036591;28;20460;-62
2023/04/13 10:33:50;;;;;;;11.43;2.10;;;;;;;11.57;92.65;100231.75;5020288;28;20017;-60
2023/04/13 10:36:16;;;;;;;13.18;2.30;;;;;;;11.56;92.34;100240.59;5045341;28;20514;-60
2023/04/13 10:38:42;;;;;;;12.55;2.30;;;;;;;11.81;93.84;100236.75;5038627;28;20022;-61
2023/04/13 10:41:08;;;;;;;16.25;2.60;;;;;;;11.72;93.07;100240.69;5036381;28;20052;-61
2023/04/13 10:43:33;;;;;;;14.07;2.17;;;;;;;11.53;93.59;100254.75;5040285;28;20366;-60
2023/04/13 10:46:08;;;;;;;14.48;2.85;;;;;;;11.58;94.17;100244.00;5048741;28;20075;-61
2023/04/13 10:48:33;;;;;;;13.55;2.25;;;;;;;11.61;92.30;100254.41;5036944;28;20505;-61
2023/04/13 10:50:59;;;;;;;16.35;2.97;;;;;;;11.63;93.75;100269.22;5036560;28;20017;-61
2023/04/13 10:53:27;;;;;;;19.10;2.05;;;;;;;11.61;92.01;100264.97;5045585;28;20442;-61
2023/04/13 10:55:53;;;;;;;8.00;2.45;;;;;;;11.56;92.82;100257.25;5040682;28;20013;-61
2023/04/13 10:58:18;;;;;;;11.48;1.92;;;;;;;11.68;92.17;100279.56;5038509;28;20043;-60
2023/04/13 11:00:45;;;;;;;13.15;2.17;;;;;;;11.70;92.70;100279.50;5029089;28;20460;-61
2023/04/13 11:03:10;;;;;;;12.93;2.50;;;;;;;11.66;91.74;100272.66;5049419;28;20406;-60
2023/04/13 11:05:37;;;;;;;8.02;1.70;;;;;;;11.63;93.47;100287.69;5048092;28;20110;-62
2023/04/13 11:08:03;;;;;;;11.02;2.63;;;;;;;11.70;91.27;100292.69;5046814;28;20032;-60
2023/04/13 11:10:29;;;;;;;11.02;2.13;;;;;;;11.74;91.31;100286.38;5048732;28;20056;-60
2023/04/13 11:12:56;;;;;;;17.05;2.63;;;;;;;11.87;93.04;100284.81;5048288;28;20112;-62
2023/04/13 11:15:26;;;;;;;17.15;2.85;;;;;;;11.92;91.85;100294.31;5047857;28;20025;-61
2023/04/13 11:17:56;;;;;;;11.43;2.35;;;;;;;11.98;91.18;100296.66;5046524;28;20041;-60
2023/04/13 11:20:32;;;;;;;6.88;1.80;;;;;;;12.06;89.31;100302.41;5048380;28;20078;-60
2023/04/13 11:22:58;;;;;;;18.45;2.22;;;;;;;12.23;89.96;100309.56;5048100;28;20024;-59
2023/04/13 11:25:25;;;;;;;16.50;2.65;;;;;;;12.60;89.41;100306.84;5047382;28;20029;-60